sensor_id;sensor_type;location;lat;lon;timestamp;pressure;altitude;pressure_sealevel;temperature;humidity
67345;BME280;54230;52.402;6.276;2022-11-20T00:00:00;101460.0;;;-3.2;84.0
67345;BME280;54230;52.402;6.276;2022-11-20T00:05:00;101450.0;;;-3.3;84.6
67345;BME280;54230;52.402;6.276;2022-11-20T00:10:00;101450.0;;;-3.3;84.2
67345;BME280;54230;52.402;6.276;2022-11-20T00:15:00;101450.0;;;-3.4;85.3
67345;BME280;54230;52.402;6.276;2022-11-20T00:20:00;101440.0;;;-3.4;85.4
67345;BME280;54230;52.402;6.276;2022-11-20T00:25:00;101430.0;;;-3.3;85.2
67345;BME280;54230;52.402;6.276;2022-11-20T00:30:00;101430.0;;;-3.5;86.1
67345;BME280;54230;52.402;6.276;2022-11-20T00:35:00;101420.0;;;-3.2;85.7
67345;BME280;54230;52.402;6.276;2022-11-20T00:40:00;0;;;unavailable;unavailable
67345;BME280;54230;52.402;6.276;2022-11-20T00:45:00;101410.0;;;-3.2;84.4
67345;BME280;54230;52.402;6.276;2022-11-20T00:50:00;101410.0;;;-3.2;84.3
67345;BME280;54230;52.402;6.276;2022-11-20T00:55:00;101420.0;;;-3.2;84.1
67345;BME280;54230;52.402;6.276;2022-11-20T01:00:00;101400.0;;;-3.4;84.1
67345;BME280;54230;52.402;6.276;2022-11-20T01:05:00;101420.0;;;-3.3;84.5
67345;BME280;54230;52.402;6.276;2022-11-20T01:10:00;101420.0;;;-3.3;84.2
67345;BME280;54230;52.402;6.276;2022-11-20T01:15:00;101410.0;;;-3.3;84.5
67345;BME280;54230;52.402;6.276;2022-11-20T01:20:00;101410.0;;;-3.4;84.2
67345;BME280;54230;52.402;6.276;2022-11-20T01:25:00;101410.0;;;-3.4;84.0
67345;BME280;54230;52.402;6.276;2022-11-20T01:30:00;101410.0;;;-3.5;84.0
67345;BME280;54230;52.402;6.276;2022-11-20T01:35:00;101410.0;;;-3.5;84.2
67345;BME280;54230;52.402;6.276;2022-11-20T01:40:00;101410.0;;;-3.6;84.1
67345;BME280;54230;52.402;6.276;2022-11-20T01:45:00;101410.0;;;-3.6;84.8
67345;BME280;54230;52.402;6.276;2022-11-20T01:50:04;101390.0;;;-3.5;84.3
67345;BME280;54230;52.402;6.276;2022-11-20T01:55:04;101390.0;;;-3.7;84.3
67345;BME280;54230;52.402;6.276;2022-11-20T02:00:04;101390.0;;;-3.7;85.1
67345;BME280;54230;52.402;6.276;2022-11-20T02:05:07;101390.0;;;-3.7;84.4
67345;BME280;54230;52.402;6.276;2022-11-20T02:10:00;101380.0;;;-3.8;84.5
67345;BME280;54230;52.402;6.276;2022-11-20T02:15:00;101380.0;;;-3.8;84.1
67345;BME280;54230;52.402;6.276;2022-11-20T02:20:00;101370.0;;;-3.8;84.4
67345;BME280;54230;52.402;6.276;2022-11-20T02:25:02;101360.0;;;-3.8;83.7
67345;BME280;54230;52.402;6.276;2022-11-20T02:30:01;101350.0;;;-3.8;84.2
67345;BME280;54230;52.402;6.276;2022-11-20T02:35:07;101350.0;;;-3.9;84.0
67345;BME280;54230;52.402;6.276;2022-11-20T02:40:00;101350.0;;;-3.9;84.3
67345;BME280;54230;52.402;6.276;2022-11-20T02:45:00;101350.0;;;-4.1;84.9
67345;BME280;54230;52.402;6.276;2022-11-20T02:50:00;101350.0;;;-4.0;85.0
67345;BME280;54230;52.402;6.276;2022-11-20T02:55:00;101350.0;;;-4.0;85.5
67345;BME280;54230;52.402;6.276;2022-11-20T03:00:00;101360.0;;;-4.0;85.0
67345;BME280;54230;52.402;6.276;2022-11-20T03:05:00;101360.0;;;-4.0;85.0
67345;BME280;54230;52.402;6.276;2022-11-20T03:10:00;101350.0;;;-4.0;84.6
67345;BME280;54230;52.402;6.276;2022-11-20T03:15:00;101350.0;;;-4.1;85.0
67345;BME280;54230;52.402;6.276;2022-11-20T03:20:00;101350.0;;;-4.1;84.8
67345;BME280;54230;52.402;6.276;2022-11-20T03:25:00;101350.0;;;-4.2;85.1
67345;BME280;54230;52.402;6.276;2022-11-20T03:30:00;101340.0;;;-4.2;84.7
67345;BME280;54230;52.402;6.276;2022-11-20T03:35:00;101340.0;;;-4.2;84.7
67345;BME280;54230;52.402;6.276;2022-11-20T03:40:00;101330.0;;;-4.2;84.7
67345;BME280;54230;52.402;6.276;2022-11-20T03:45:00;101320.0;;;-4.2;84.8
67345;BME280;54230;52.402;6.276;2022-11-20T03:50:00;101310.0;;;-4.3;84.9
67345;BME280;54230;52.402;6.276;2022-11-20T03:55:00;101320.0;;;-4.3;85.0
67345;BME280;54230;52.402;6.276;2022-11-20T04:00:00;101290.0;;;-4.4;85.0
67345;BME280;54230;52.402;6.276;2022-11-20T04:05:00;101310.0;;;-4.3;85.1
67345;BME280;54230;52.402;6.276;2022-11-20T04:10:00;101300.0;;;-4.3;85.2
67345;BME280;54230;52.402;6.276;2022-11-20T04:15:00;101300.0;;;-4.3;85.4
67345;BME280;54230;52.402;6.276;2022-11-20T04:20:00;101300.0;;;-4.2;85.3
67345;BME280;54230;52.402;6.276;2022-11-20T04:25:00;101300.0;;;-4.3;86.4
67345;BME280;54230;52.402;6.276;2022-11-20T04:30:00;101270.0;;;-4.5;86.3
67345;BME280;54230;52.402;6.276;2022-11-20T04:35:00;101290.0;;;-4.4;86.6
67345;BME280;54230;52.402;6.276;2022-11-20T04:40:00;101290.0;;;-4.4;86.7
67345;BME280;54230;52.402;6.276;2022-11-20T04:45:00;101290.0;;;-4.5;87.5
67345;BME280;54230;52.402;6.276;2022-11-20T04:50:00;101290.0;;;-4.4;86.6
67345;BME280;54230;52.402;6.276;2022-11-20T04:55:00;101280.0;;;-4.5;86.9
67345;BME280;54230;52.402;6.276;2022-11-20T05:00:00;101250.0;;;-4.6;86.8
67345;BME280;54230;52.402;6.276;2022-11-20T05:05:00;101270.0;;;-4.5;86.8
67345;BME280;54230;52.402;6.276;2022-11-20T05:10:00;101270.0;;;-4.5;86.5
67345;BME280;54230;52.402;6.276;2022-11-20T05:15:00;101260.0;;;-4.5;85.9
67345;BME280;54230;52.402;6.276;2022-11-20T05:20:00;101270.0;;;-4.6;86.0
67345;BME280;54230;52.402;6.276;2022-11-20T05:25:00;101260.0;;;-4.7;86.6
67345;BME280;54230;52.402;6.276;2022-11-20T05:30:00;101270.0;;;-4.7;86.6
67345;BME280;54230;52.402;6.276;2022-11-20T05:35:00;101270.0;;;-4.7;86.5
67345;BME280;54230;52.402;6.276;2022-11-20T05:40:00;101270.0;;;-4.7;86.4
67345;BME280;54230;52.402;6.276;2022-11-20T05:45:01;101270.0;;;-4.7;86.5
67345;BME280;54230;52.402;6.276;2022-11-20T05:50:00;101270.0;;;-4.8;86.5
67345;BME280;54230;52.402;6.276;2022-11-20T05:55:00;101270.0;;;-4.8;86.9
67345;BME280;54230;52.402;6.276;2022-11-20T06:00:00;101260.0;;;-4.7;87.0
67345;BME280;54230;52.402;6.276;2022-11-20T06:05:00;101250.0;;;-4.7;86.8
67345;BME280;54230;52.402;6.276;2022-11-20T06:10:00;101250.0;;;-4.8;87.0
67345;BME280;54230;52.402;6.276;2022-11-20T06:15:00;101260.0;;;-4.8;87.1
67345;BME280;54230;52.402;6.276;2022-11-20T06:20:00;101260.0;;;-4.8;87.2
67345;BME280;54230;52.402;6.276;2022-11-20T06:25:00;101250.0;;;-4.8;87.1
67345;BME280;54230;52.402;6.276;2022-11-20T06:30:00;101250.0;;;-4.8;86.7
67345;BME280;54230;52.402;6.276;2022-11-20T06:35:00;101260.0;;;-4.8;86.5
67345;BME280;54230;52.402;6.276;2022-11-20T06:40:00;101260.0;;;-4.8;86.6
67345;BME280;54230;52.402;6.276;2022-11-20T06:45:00;101250.0;;;-4.9;86.4
67345;BME280;54230;52.402;6.276;2022-11-20T06:50:00;101250.0;;;-4.8;87.5
67345;BME280;54230;52.402;6.276;2022-11-20T06:55:00;101260.0;;;-4.7;87.3
67345;BME280;54230;52.402;6.276;2022-11-20T07:00:00;101280.0;;;-4.7;86.5
67345;BME280;54230;52.402;6.276;2022-11-20T07:05:00;101280.0;;;-4.7;86.4
67345;BME280;54230;52.402;6.276;2022-11-20T07:10:00;101290.0;;;-4.7;86.7
67345;BME280;54230;52.402;6.276;2022-11-20T07:15:00;101280.0;;;-4.8;86.4
67345;BME280;54230;52.402;6.276;2022-11-20T07:20:00;101280.0;;;-4.7;86.3
67345;BME280;54230;52.402;6.276;2022-11-20T07:25:00;101280.0;;;-4.7;86.2
67345;BME280;54230;52.402;6.276;2022-11-20T07:30:00;101280.0;;;-4.6;86.1
67345;BME280;54230;52.402;6.276;2022-11-20T07:35:00;101270.0;;;-4.6;86.0
67345;BME280;54230;52.402;6.276;2022-11-20T07:40:00;101270.0;;;-4.5;85.6
67345;BME280;54230;52.402;6.276;2022-11-20T07:45:00;101260.0;;;-4.4;85.5
67345;BME280;54230;52.402;6.276;2022-11-20T07:50:00;101260.0;;;-4.3;85.7
67345;BME280;54230;52.402;6.276;2022-11-20T07:55:00;101250.0;;;-4.2;86.0
67345;BME280;54230;52.402;6.276;2022-11-20T08:00:00;101240.0;;;-4.1;86.0
67345;BME280;54230;52.402;6.276;2022-11-20T08:05:00;101230.0;;;-4.1;86.1
67345;BME280;54230;52.402;6.276;2022-11-20T08:10:00;101250.0;;;-3.8;86.0
67345;BME280;54230;52.402;6.276;2022-11-20T08:15:00;101240.0;;;-3.5;85.9
67345;BME280;54230;52.402;6.276;2022-11-20T08:20:00;101240.0;;;-3.4;85.7
67345;BME280;54230;52.402;6.276;2022-11-20T08:25:00;101240.0;;;-3.2;86.0
67345;BME280;54230;52.402;6.276;2022-11-20T08:30:00;101230.0;;;-3.0;85.9
67345;BME280;54230;52.402;6.276;2022-11-20T08:35:00;101220.0;;;-2.7;85.3
67345;BME280;54230;52.402;6.276;2022-11-20T08:40:00;101220.0;;;-2.4;84.7
67345;BME280;54230;52.402;6.276;2022-11-20T08:45:00;101220.0;;;-2.2;84.1
67345;BME280;54230;52.402;6.276;2022-11-20T08:50:00;101220.0;;;-2.0;83.8
67345;BME280;54230;52.402;6.276;2022-11-20T08:55:00;101220.0;;;-1.9;83.1
67345;BME280;54230;52.402;6.276;2022-11-20T09:00:00;101200.0;;;-1.6;82.3
67345;BME280;54230;52.402;6.276;2022-11-20T09:05:00;101200.0;;;-1.6;82.3
67345;BME280;54230;52.402;6.276;2022-11-20T09:10:00;101200.0;;;-1.6;80.6
67345;BME280;54230;52.402;6.276;2022-11-20T09:15:00;101200.0;;;-1.5;80.2
67345;BME280;54230;52.402;6.276;2022-11-20T09:20:00;101190.0;;;-1.2;79.7
67345;BME280;54230;52.402;6.276;2022-11-20T09:25:00;101190.0;;;-1.0;80.3
67345;BME280;54230;52.402;6.276;2022-11-20T09:30:00;101190.0;;;-0.7;79.8
67345;BME280;54230;52.402;6.276;2022-11-20T09:35:00;101190.0;;;-0.6;78.9
67345;BME280;54230;52.402;6.276;2022-11-20T09:40:00;101180.0;;;-0.6;77.9
67345;BME280;54230;52.402;6.276;2022-11-20T09:45:13;101150.0;;;-0.7;76.9
67345;BME280;54230;52.402;6.276;2022-11-20T09:50:12;101170.0;;;-0.2;76.4
67345;BME280;54230;52.402;6.276;2022-11-20T09:55:02;101160.0;;;0.0;75.8
67345;BME280;54230;52.402;6.276;2022-11-20T10:00:00;101160.0;;;0.2;75.2
67345;BME280;54230;52.402;6.276;2022-11-20T10:05:03;101150.0;;;0.5;74.3
67345;BME280;54230;52.402;6.276;2022-11-20T10:10:00;101150.0;;;0.5;72.4
67345;BME280;54230;52.402;6.276;2022-11-20T10:15:10;101140.0;;;0.3;73.4
67345;BME280;54230;52.402;6.276;2022-11-20T10:20:12;101140.0;;;0.1;73.1
67345;BME280;54230;52.402;6.276;2022-11-20T10:25:04;101140.0;;;0.2;74.2
67345;BME280;54230;52.402;6.276;2022-11-20T10:30:02;101130.0;;;0.2;73.6
67345;BME280;54230;52.402;6.276;2022-11-20T10:35:01;101100.0;;;0.2;74.4
67345;BME280;54230;52.402;6.276;2022-11-20T10:40:04;101110.0;;;0.4;74.4
67345;BME280;54230;52.402;6.276;2022-11-20T10:45:09;101120.0;;;0.6;73.5
67345;BME280;54230;52.402;6.276;2022-11-20T10:50:02;101110.0;;;0.7;73.7
67345;BME280;54230;52.402;6.276;2022-11-20T10:55:07;101110.0;;;0.8;73.3
67345;BME280;54230;52.402;6.276;2022-11-20T11:00:03;101110.0;;;1.1;73.9
67345;BME280;54230;52.402;6.276;2022-11-20T11:05:06;101110.0;;;1.2;73.4
67345;BME280;54230;52.402;6.276;2022-11-20T11:10:00;101110.0;;;1.2;73.2
67345;BME280;54230;52.402;6.276;2022-11-20T11:15:00;101100.0;;;1.5;73.8
67345;BME280;54230;52.402;6.276;2022-11-20T11:20:03;101100.0;;;1.7;74.4
67345;BME280;54230;52.402;6.276;2022-11-20T11:25:00;101080.0;;;1.9;74.6
67345;BME280;54230;52.402;6.276;2022-11-20T11:30:10;101070.0;;;2.2;73.8
67345;BME280;54230;52.402;6.276;2022-11-20T11:35:01;101050.0;;;2.6;73.3
67345;BME280;54230;52.402;6.276;2022-11-20T11:40:00;101050.0;;;2.4;74.3
67345;BME280;54230;52.402;6.276;2022-11-20T11:45:00;101050.0;;;2.5;74.9
67345;BME280;54230;52.402;6.276;2022-11-20T11:50:02;101050.0;;;2.8;74.9
67345;BME280;54230;52.402;6.276;2022-11-20T11:55:02;101030.0;;;2.7;75.4
67345;BME280;54230;52.402;6.276;2022-11-20T12:00:02;101030.0;;;2.8;75.8
67345;BME280;54230;52.402;6.276;2022-11-20T12:05:03;101020.0;;;2.8;76.5
67345;BME280;54230;52.402;6.276;2022-11-20T12:10:01;101020.0;;;2.7;76.4
67345;BME280;54230;52.402;6.276;2022-11-20T12:15:00;101020.0;;;2.8;76.8
67345;BME280;54230;52.402;6.276;2022-11-20T12:20:00;101010.0;;;2.9;76.6
67345;BME280;54230;52.402;6.276;2022-11-20T12:25:02;101000.0;;;3.0;76.5
67345;BME280;54230;52.402;6.276;2022-11-20T12:30:02;100960.0;;;2.8;76.3
67345;BME280;54230;52.402;6.276;2022-11-20T12:35:04;100980.0;;;3.0;76.9
67345;BME280;54230;52.402;6.276;2022-11-20T12:40:09;100980.0;;;3.1;76.5
67345;BME280;54230;52.402;6.276;2022-11-20T12:45:12;100960.0;;;3.1;77.0
67345;BME280;54230;52.402;6.276;2022-11-20T12:50:05;100950.0;;;3.2;77.0
67345;BME280;54230;52.402;6.276;2022-11-20T12:55:13;100940.0;;;3.1;77.2
67345;BME280;54230;52.402;6.276;2022-11-20T13:05:13;100920.0;;;3.2;77.0
67345;BME280;54230;52.402;6.276;2022-11-20T13:10:00;100920.0;;;3.2;77.0
67345;BME280;54230;52.402;6.276;2022-11-20T13:15:04;100920.0;;;3.2;77.0
67345;BME280;54230;52.402;6.276;2022-11-20T13:20:00;100900.0;;;3.1;77.2
67345;BME280;54230;52.402;6.276;2022-11-20T13:25:00;100890.0;;;3.1;77.2
67345;BME280;54230;52.402;6.276;2022-11-20T13:30:10;100890.0;;;3.0;77.8
67345;BME280;54230;52.402;6.276;2022-11-20T13:35:02;100880.0;;;3.0;77.8
67345;BME280;54230;52.402;6.276;2022-11-20T13:40:11;100870.0;;;3.1;77.4
67345;BME280;54230;52.402;6.276;2022-11-20T13:45:08;100860.0;;;3.2;77.3
67345;BME280;54230;52.402;6.276;2022-11-20T13:50:03;100850.0;;;3.2;76.3
67345;BME280;54230;52.402;6.276;2022-11-20T13:55:07;100850.0;;;3.1;76.5
67345;BME280;54230;52.402;6.276;2022-11-20T14:00:07;100850.0;;;3.1;76.5
67345;BME280;54230;52.402;6.276;2022-11-20T14:05:01;100840.0;;;3.1;76.0
67345;BME280;54230;52.402;6.276;2022-11-20T14:10:00;100840.0;;;3.0;76.4
67345;BME280;54230;52.402;6.276;2022-11-20T14:15:00;100830.0;;;3.0;76.8
67345;BME280;54230;52.402;6.276;2022-11-20T14:20:02;100820.0;;;2.9;77.6
67345;BME280;54230;52.402;6.276;2022-11-20T14:25:04;100810.0;;;2.9;77.7
67345;BME280;54230;52.402;6.276;2022-11-20T14:30:00;100800.0;;;2.9;77.6
67345;BME280;54230;52.402;6.276;2022-11-20T14:35:07;100780.0;;;2.9;78.0
67345;BME280;54230;52.402;6.276;2022-11-20T14:40:00;100770.0;;;2.9;78.1
67345;BME280;54230;52.402;6.276;2022-11-20T14:45:00;100770.0;;;2.9;78.2
67345;BME280;54230;52.402;6.276;2022-11-20T14:50:00;100770.0;;;2.9;78.4
67345;BME280;54230;52.402;6.276;2022-11-20T14:55:00;100760.0;;;2.9;78.8
67345;BME280;54230;52.402;6.276;2022-11-20T15:00:06;100730.0;;;2.8;79.1
67345;BME280;54230;52.402;6.276;2022-11-20T15:05:01;100740.0;;;2.9;79.2
67345;BME280;54230;52.402;6.276;2022-11-20T15:10:02;100730.0;;;3.0;79.6
67345;BME280;54230;52.402;6.276;2022-11-20T15:15:01;100720.0;;;2.9;80.0
67345;BME280;54230;52.402;6.276;2022-11-20T15:20:01;100710.0;;;2.9;80.2
67345;BME280;54230;52.402;6.276;2022-11-20T15:25:00;100700.0;;;3.0;80.1
67345;BME280;54230;52.402;6.276;2022-11-20T15:30:00;100690.0;;;2.8;80.4
67345;BME280;54230;52.402;6.276;2022-11-20T15:35:00;100710.0;;;2.9;80.9
67345;BME280;54230;52.402;6.276;2022-11-20T15:40:00;100710.0;;;2.9;81.3
67345;BME280;54230;52.402;6.276;2022-11-20T15:45:00;100710.0;;;2.8;82.4
67345;BME280;54230;52.402;6.276;2022-11-20T15:50:00;100700.0;;;2.8;83.1
67345;BME280;54230;52.402;6.276;2022-11-20T15:55:00;100690.0;;;2.8;83.8
67345;BME280;54230;52.402;6.276;2022-11-20T16:00:00;100690.0;;;2.8;84.4
67345;BME280;54230;52.402;6.276;2022-11-20T16:05:00;100680.0;;;2.8;85.2
67345;BME280;54230;52.402;6.276;2022-11-20T16:10:00;100670.0;;;2.8;85.5
67345;BME280;54230;52.402;6.276;2022-11-20T16:15:00;100660.0;;;2.8;85.9
67345;BME280;54230;52.402;6.276;2022-11-20T16:20:00;100650.0;;;2.8;85.9
67345;BME280;54230;52.402;6.276;2022-11-20T16:25:00;100650.0;;;2.8;86.3
67345;BME280;54230;52.402;6.276;2022-11-20T16:30:00;100650.0;;;2.7;86.4
67345;BME280;54230;52.402;6.276;2022-11-20T16:35:00;100640.0;;;2.7;86.4
67345;BME280;54230;52.402;6.276;2022-11-20T16:40:00;100630.0;;;2.7;86.9
67345;BME280;54230;52.402;6.276;2022-11-20T16:45:00;100630.0;;;2.7;87.2
67345;BME280;54230;52.402;6.276;2022-11-20T16:50:00;100630.0;;;2.6;87.5
67345;BME280;54230;52.402;6.276;2022-11-20T16:55:00;100630.0;;;2.6;88.1
67345;BME280;54230;52.402;6.276;2022-11-20T17:00:00;100640.0;;;2.6;88.7
67345;BME280;54230;52.402;6.276;2022-11-20T17:05:00;100630.0;;;2.6;88.9
67345;BME280;54230;52.402;6.276;2022-11-20T17:10:00;100630.0;;;2.6;89.2
67345;BME280;54230;52.402;6.276;2022-11-20T17:15:00;100630.0;;;2.6;89.6
67345;BME280;54230;52.402;6.276;2022-11-20T17:20:00;100620.0;;;2.6;89.6
67345;BME280;54230;52.402;6.276;2022-11-20T17:25:00;100610.0;;;2.5;89.8
67345;BME280;54230;52.402;6.276;2022-11-20T17:30:00;100610.0;;;2.4;90.3
67345;BME280;54230;52.402;6.276;2022-11-20T17:35:00;100600.0;;;2.3;90.5
67345;BME280;54230;52.402;6.276;2022-11-20T17:40:00;100600.0;;;2.2;90.8
67345;BME280;54230;52.402;6.276;2022-11-20T17:45:00;100590.0;;;2.1;90.9
67345;BME280;54230;52.402;6.276;2022-11-20T17:50:00;100590.0;;;2.0;91.1
67345;BME280;54230;52.402;6.276;2022-11-20T17:55:00;100580.0;;;1.9;91.5
67345;BME280;54230;52.402;6.276;2022-11-20T18:00:00;100580.0;;;1.9;91.6
67345;BME280;54230;52.402;6.276;2022-11-20T18:05:00;100570.0;;;1.7;91.9
67345;BME280;54230;52.402;6.276;2022-11-20T18:10:00;100570.0;;;1.7;91.9
67345;BME280;54230;52.402;6.276;2022-11-20T18:15:00;100560.0;;;1.6;91.9
67345;BME280;54230;52.402;6.276;2022-11-20T18:20:00;100550.0;;;1.6;92.2
67345;BME280;54230;52.402;6.276;2022-11-20T18:25:00;100540.0;;;1.5;92.5
67345;BME280;54230;52.402;6.276;2022-11-20T18:30:00;100540.0;;;1.5;92.9
67345;BME280;54230;52.402;6.276;2022-11-20T18:35:00;100530.0;;;1.4;93.0
67345;BME280;54230;52.402;6.276;2022-11-20T18:40:00;100520.0;;;1.3;93.4
67345;BME280;54230;52.402;6.276;2022-11-20T18:45:00;100520.0;;;1.3;93.8
67345;BME280;54230;52.402;6.276;2022-11-20T18:50:00;100520.0;;;1.3;93.7
67345;BME280;54230;52.402;6.276;2022-11-20T18:55:00;100510.0;;;1.2;94.3
67345;BME280;54230;52.402;6.276;2022-11-20T19:00:00;100500.0;;;1.2;94.4
67345;BME280;54230;52.402;6.276;2022-11-20T19:05:00;100500.0;;;1.2;94.6
67345;BME280;54230;52.402;6.276;2022-11-20T19:10:00;100500.0;;;1.2;94.5
67345;BME280;54230;52.402;6.276;2022-11-20T19:15:00;100500.0;;;1.1;95.0
67345;BME280;54230;52.402;6.276;2022-11-20T19:20:00;100490.0;;;1.2;94.9
67345;BME280;54230;52.402;6.276;2022-11-20T19:25:00;100490.0;;;1.1;95.4
67345;BME280;54230;52.402;6.276;2022-11-20T19:30:00;100500.0;;;1.1;95.7
67345;BME280;54230;52.402;6.276;2022-11-20T19:35:00;100500.0;;;1.2;95.6
67345;BME280;54230;52.402;6.276;2022-11-20T19:40:00;100510.0;;;1.2;95.8
67345;BME280;54230;52.402;6.276;2022-11-20T19:45:00;100510.0;;;1.2;95.9
67345;BME280;54230;52.402;6.276;2022-11-20T19:50:00;100520.0;;;1.2;95.5
67345;BME280;54230;52.402;6.276;2022-11-20T19:55:00;100520.0;;;1.2;95.8
67345;BME280;54230;52.402;6.276;2022-11-20T20:00:00;100520.0;;;1.1;95.7
67345;BME280;54230;52.402;6.276;2022-11-20T20:05:00;100510.0;;;1.1;95.6
67345;BME280;54230;52.402;6.276;2022-11-20T20:10:00;100510.0;;;1.0;95.8
67345;BME280;54230;52.402;6.276;2022-11-20T20:15:00;100510.0;;;1.0;96.0
67345;BME280;54230;52.402;6.276;2022-11-20T20:20:00;100510.0;;;1.0;95.8
67345;BME280;54230;52.402;6.276;2022-11-20T20:25:00;100510.0;;;1.0;96.1
67345;BME280;54230;52.402;6.276;2022-11-20T20:30:00;100520.0;;;1.1;96.3
67345;BME280;54230;52.402;6.276;2022-11-20T20:35:00;100520.0;;;1.1;96.2
67345;BME280;54230;52.402;6.276;2022-11-20T20:40:00;100520.0;;;1.1;96.1
67345;BME280;54230;52.402;6.276;2022-11-20T20:45:00;100510.0;;;1.1;96.1
67345;BME280;54230;52.402;6.276;2022-11-20T20:50:00;100500.0;;;1.1;96.0
67345;BME280;54230;52.402;6.276;2022-11-20T20:55:00;100500.0;;;1.1;96.4
67345;BME280;54230;52.402;6.276;2022-11-20T21:00:00;100510.0;;;1.1;96.3
67345;BME280;54230;52.402;6.276;2022-11-20T21:05:00;100510.0;;;1.0;96.4
67345;BME280;54230;52.402;6.276;2022-11-20T21:10:00;100510.0;;;1.1;96.8
67345;BME280;54230;52.402;6.276;2022-11-20T21:15:00;100520.0;;;1.1;96.5
67345;BME280;54230;52.402;6.276;2022-11-20T21:20:00;100520.0;;;1.1;96.8
67345;BME280;54230;52.402;6.276;2022-11-20T21:25:00;100530.0;;;1.1;96.6
67345;BME280;54230;52.402;6.276;2022-11-20T21:30:00;100540.0;;;1.1;97.0
67345;BME280;54230;52.402;6.276;2022-11-20T21:35:00;100550.0;;;1.1;96.9
67345;BME280;54230;52.402;6.276;2022-11-20T21:40:00;100550.0;;;1.2;97.0
67345;BME280;54230;52.402;6.276;2022-11-20T21:45:00;100550.0;;;1.1;97.1
67345;BME280;54230;52.402;6.276;2022-11-20T21:50:00;100550.0;;;1.1;97.2
67345;BME280;54230;52.402;6.276;2022-11-20T21:55:00;100540.0;;;1.0;97.4
67345;BME280;54230;52.402;6.276;2022-11-20T22:00:00;100560.0;;;1.1;97.9
67345;BME280;54230;52.402;6.276;2022-11-20T22:05:00;100560.0;;;1.2;97.6
67345;BME280;54230;52.402;6.276;2022-11-20T22:10:00;100560.0;;;1.2;97.8
67345;BME280;54230;52.402;6.276;2022-11-20T22:15:00;100550.0;;;1.1;98.0
67345;BME280;54230;52.402;6.276;2022-11-20T22:20:00;100570.0;;;1.2;98.1
67345;BME280;54230;52.402;6.276;2022-11-20T22:25:00;100570.0;;;1.1;98.0
67345;BME280;54230;52.402;6.276;2022-11-20T22:30:00;100590.0;;;1.3;98.1
67345;BME280;54230;52.402;6.276;2022-11-20T22:35:00;100590.0;;;1.3;98.2
67345;BME280;54230;52.402;6.276;2022-11-20T22:40:00;100580.0;;;1.4;97.7
67345;BME280;54230;52.402;6.276;2022-11-20T22:45:00;100600.0;;;1.4;97.8
67345;BME280;54230;52.402;6.276;2022-11-20T22:50:00;100610.0;;;1.4;97.8
67345;BME280;54230;52.402;6.276;2022-11-20T22:55:00;100610.0;;;1.5;97.6
67345;BME280;54230;52.402;6.276;2022-11-20T23:00:00;100610.0;;;1.4;97.7
67345;BME280;54230;52.402;6.276;2022-11-20T23:05:00;100620.0;;;1.5;97.3
67345;BME280;54230;52.402;6.276;2022-11-20T23:10:00;100610.0;;;1.5;96.9
67345;BME280;54230;52.402;6.276;2022-11-20T23:15:00;100620.0;;;1.4;96.8
67345;BME280;54230;52.402;6.276;2022-11-20T23:20:00;100620.0;;;1.4;96.7
67345;BME280;54230;52.402;6.276;2022-11-20T23:25:00;100630.0;;;1.3;96.5
67345;BME280;54230;52.402;6.276;2022-11-20T23:30:00;100630.0;;;1.2;96.5
67345;BME280;54230;52.402;6.276;2022-11-20T23:35:00;100630.0;;;1.3;97.8
67345;BME280;54230;52.402;6.276;2022-11-20T23:40:00;100630.0;;;1.3;96.7
67345;BME280;54230;52.402;6.276;2022-11-20T23:45:00;100640.0;;;1.4;97.0
67345;BME280;54230;52.402;6.276;2022-11-20T23:50:00;100650.0;;;1.3;96.8
67345;BME280;54230;52.402;6.276;2022-11-20T23:55:00;100650.0;;;1.3;96.9
